DW8604 Helmond NL current weather conditions

sailwx.info

Wind from 219 at 3 knots gusting 9

Air temperature 22.8° C
Dewpoint 16.1° C

Last reported at 2018-Sep-20 11:00 UTC.
Time now 2018-Sep-20 12:26 UTC

Location: N 51°30' E 005°41'.
View on Google Maps.

See reports from other nearby stations

  
Tides and Currents Weather Stations Pressure Air Temp Water Temp Dewpoint Dewpoint Depression Visibility Wind Speed Wind Dir Waves Ship Positions
date/time (UTC)wind fromknots sea level pressurealtimeterstation pressurevisibilityair tempwater tempwave heightnotes
2018-Sep-20 11:00 219 3 gusting 9 22.8
2018-Sep-20 10:15 210 4 gusting 10 21.7
2018-Sep-20 09:30 228 4 gusting 11 20.6
2018-Sep-20 08:45 227 3 gusting 7 19.4
2018-Sep-20 08:30 225 3 gusting 7 19.4
2018-Sep-20 08:15 232 2 gusting 11 19.4
2018-Sep-20 07:45 221 1 gusting 6 18.3
2018-Sep-20 07:30 209 2 gusting 6 18.3
2018-Sep-20 05:45 175 16.1
2018-Sep-20 05:00 188 16.1
2018-Sep-20 03:45 186 0 gusting 3 16.7
2018-Sep-20 03:30 183 16.7
2018-Sep-20 02:45 172 16.1
2018-Sep-20 01:45 16.7
2018-Sep-20 01:15 197 17.8
2018-Sep-20 00:45 196 17.8
2018-Sep-20 00:30 196 17.8
2018-Sep-20 00:00 17.8
2018-Sep-19 23:30 17.8
2018-Sep-19 23:15 201 17.8
2018-Sep-19 21:00 194 20.0
2018-Sep-19 20:15 237 20.0
2018-Sep-19 20:00 238 20.6
2018-Sep-19 19:30 226 0 gusting 4 20.6
2018-Sep-19 19:15 243 0 gusting 6 21.1
2018-Sep-19 18:15 222 0 gusting 5 21.7
2018-Sep-19 17:30 251 2 gusting 9 22.2
2018-Sep-19 17:00 252 3 gusting 13 22.8
2018-Sep-19 16:45 242 4 gusting 12 22.8
2018-Sep-19 16:15 232 3 gusting 8 23.3
2018-Sep-19 13:30 228 5 gusting 12 24.4
2018-Sep-19 13:15 226 5 gusting 14 23.9
2018-Sep-19 12:45 234 4 gusting 10 24.4
2018-Sep-19 12:30 235 6 gusting 12 24.4
2018-Sep-19 12:15 224 5 gusting 10 23.9
2018-Sep-19 11:30 244 5 gusting 11 22.8
2018-Sep-19 10:15 239 3 gusting 9 21.7
2018-Sep-19 09:15 241 4 gusting 9 20.6
2018-Sep-19 09:00 237 4 gusting 9 20.6
2018-Sep-19 08:30 235 3 gusting 12 20.6
2018-Sep-19 08:15 225 2 gusting 9 20.0
2018-Sep-19 08:00 237 3 gusting 10 19.4
2018-Sep-19 07:15 222 0 gusting 5 18.3
2018-Sep-19 07:00 209 1 gusting 4 17.2
2018-Sep-19 06:45 192 0 gusting 6 16.7
2018-Sep-19 06:30 175 0 gusting 4 16.7
2018-Sep-19 06:00 183 15.6
2018-Sep-19 05:45 171 0 gusting 3 15.6
2018-Sep-19 03:45 15.0
2018-Sep-19 03:15 15.0
2018-Sep-19 02:45 15.6
2018-Sep-19 02:00 183 15.6
2018-Sep-19 01:45 185 15.6
2018-Sep-19 01:15 174 0 gusting 5 15.6
2018-Sep-19 00:45 181 0 gusting 3 15.6
2018-Sep-19 00:30 165 15.6
2018-Sep-18 22:45 16.1
2018-Sep-18 22:00 17.2
2018-Sep-18 21:00 209 17.8
2018-Sep-18 20:30 242 0 gusting 4 18.3
2018-Sep-18 20:15 240 1 gusting 6 18.3
2018-Sep-18 20:00 250 1 gusting 6 18.3
2018-Sep-18 19:45 253 1 gusting 6 18.9
2018-Sep-18 19:15 263 2 gusting 10 19.4
2018-Sep-18 19:00 259 2 gusting 9 20.0
2018-Sep-18 18:15 246 3 gusting 7 20.6
2018-Sep-18 17:31 251 2 gusting 8 21.7
2018-Sep-18 17:00 246 4 gusting 8 22.8
2018-Sep-18 15:45 259 5 gusting 12 24.4
2018-Sep-18 15:00 244 6 gusting 14 25.6
2018-Sep-18 13:30 236 6 gusting 15 25.6
2018-Sep-18 13:15 234 5 gusting 12 25.6
2018-Sep-18 13:00 253 5 gusting 13 25.6
2018-Sep-18 12:45 236 6 gusting 14 25.0